Terminal Aerodrome Forecast
Issued by NWS

Home | Current Version | Previous Version | Text Only | Print | Product List | Glossary Off
Versions: 1 2 3 4 5 6 7 8 9 10 11 12 13 14 15 16 17

000
FTUS43 KFGF 011720
TAFBJI
TAF
KBJI 011720Z 0118/0218 17015KT P6SM SCT090 BKN250
     FM020600 15008KT P6SM BKN080
     FM021500 16012G20KT P6SM OVC050=

USA.gov is the U.S. government's official web portal to all federal, state and local government web resources and services.